Time;durP1;ratioP1;P1;durP2;ratioP2;P2;SDS_P1;SDS_P2;PMS_P1;PMS_P2;Temp;Humidity;BMP_temperature;BMP_pressure;BME280_temperature;BME280_humidity;BME280_pressure;Samples;Min_cycle;Max_cycle;Signal;HPM_P1;HPM_P2
2022/09/06 00:01:38;;;;;;;8.35;3.08;;;24.60;99.90;;;;;;5092077;28;20372;-87
2022/09/06 00:04:04;;;;;;;10.07;2.88;;;24.60;99.90;;;;;;5091833;28;20028;-85
2022/09/06 00:06:30;;;;;;;9.05;3.25;;;24.60;99.90;;;;;;5092187;28;20022;-86
2022/09/06 00:08:55;;;;;;;9.90;3.20;;;24.60;99.90;;;;;;5092082;28;20050;-86
2022/09/06 00:11:21;;;;;;;8.25;2.75;;;24.50;99.90;;;;;;5092032;28;20016;-86
2022/09/06 00:13:47;;;;;;;9.25;3.22;;;24.50;99.90;;;;;;5092499;28;20028;-86
2022/09/06 00:16:22;;;;;;;8.70;3.30;;;24.50;99.90;;;;;;5101787;28;20646;-86
2022/09/06 00:18:51;;;;;;;5.88;2.63;;;24.50;99.90;;;;;;5112303;28;20040;-86
2022/09/06 00:21:22;;;;;;;6.22;3.40;;;24.50;99.90;;;;;;5112501;28;20023;-86
2022/09/06 00:23:48;;;;;;;9.20;3.08;;;24.40;99.90;;;;;;5112001;28;20059;-86
2022/09/06 00:26:14;;;;;;;11.35;2.92;;;24.40;99.90;;;;;;5111902;28;20443;-86
2022/09/06 00:28:40;;;;;;;7.97;2.90;;;24.40;99.90;;;;;;5111954;28;20019;-87
2022/09/06 00:31:21;;;;;;;10.02;3.22;;;24.30;99.90;;;;;;5093485;28;20055;-86
2022/09/06 00:33:47;;;;;;;9.05;3.08;;;24.40;99.90;;;;;;5091908;28;20032;-86
2022/09/06 00:36:13;;;;;;;8.30;3.00;;;24.40;99.90;;;;;;5092256;28;20016;-86
2022/09/06 00:38:39;;;;;;;7.85;2.95;;;24.30;99.90;;;;;;5073625;28;20496;-86
2022/09/06 00:41:07;;;;;;;9.40;3.10;;;24.30;99.90;;;;;;5091877;28;20072;-86
2022/09/06 00:43:32;;;;;;;6.88;2.75;;;24.30;99.90;;;;;;5092147;28;20091;-86
2022/09/06 00:46:00;;;;;;;10.25;2.92;;;24.40;99.90;;;;;;5091404;28;20482;-86
2022/09/06 00:48:25;;;;;;;9.70;2.80;;;24.30;99.90;;;;;;5091755;28;20408;-86
2022/09/06 00:50:55;;;;;;;8.30;3.17;;;24.40;99.90;;;;;;5073660;28;20039;-86
2022/09/06 00:53:21;;;;;;;8.63;2.70;;;24.50;99.90;;;;;;5091791;28;20028;-87
2022/09/06 00:55:47;;;;;;;10.18;2.95;;;24.30;99.90;;;;;;5077488;28;20031;-86
2022/09/06 00:58:13;;;;;;;9.55;2.90;;;24.30;99.90;;;;;;5095316;28;20392;-86
2022/09/06 01:00:39;;;;;;;8.30;2.63;;;24.30;99.90;;;;;;5095527;28;20028;-86
2022/09/06 01:03:06;;;;;;;8.90;3.05;;;24.40;99.90;;;;;;5095475;28;20024;-86
2022/09/06 01:06:00;;;;;;;8.65;2.90;;;24.50;99.90;;;;;;5095412;28;20024;-86
2022/09/06 01:08:41;;;;;;;9.13;2.97;;;24.40;1.00;;;;;;5095363;28;20020;-86
2022/09/06 01:11:45;;;;;;;8.50;2.97;;;24.40;99.90;;;;;;5095183;28;20082;-86
2022/09/06 01:14:47;;;;;;;8.57;2.83;;;24.40;99.90;;;;;;5094741;28;20027;-87
2022/09/06 01:17:33;;;;;;;9.77;2.92;;;24.40;99.90;;;;;;5113648;28;20023;-86
2022/09/06 01:20:10;;;;;;;8.85;3.00;;;24.40;99.90;;;;;;5115807;28;20091;-86
2022/09/06 01:22:48;;;;;;;7.72;2.80;;;24.50;99.90;;;;;;5115399;28;20020;-86
2022/09/06 01:25:38;;;;;;;9.50;3.08;;;24.50;99.90;;;;;;5115472;28;20567;-86
2022/09/06 01:28:49;;;;;;;7.57;2.78;;;24.40;99.90;;;;;;5115493;28;20098;-86
2022/09/06 01:31:20;;;;;;;8.38;2.60;;;24.40;99.90;;;;;;5071637;28;20051;-86
2022/09/06 01:34:04;;;;;;;9.00;2.88;;;24.20;99.90;;;;;;5074614;28;20394;-86
2022/09/06 01:36:45;;;;;;;11.23;2.85;;;24.20;99.90;;;;;;5074537;28;20037;-86
2022/09/06 01:39:23;;;;;;;7.28;2.88;;;24.30;99.90;;;;;;5074421;28;20070;-86
2022/09/06 01:41:50;;;;;;;9.07;3.03;;;24.20;99.90;;;;;;5074002;28;20028;-86
2022/09/06 01:44:16;;;;;;;6.63;2.95;;;24.20;99.90;;;;;;5074294;28;20119;-87
2022/09/06 01:47:04;;;;;;;6.78;2.78;;;24.20;99.90;;;;;;5074405;28;20062;-86
2022/09/06 01:50:11;;;;;;;9.27;2.78;;;24.30;1.00;;;;;;5074467;28;20024;-86
2022/09/06 01:52:40;;;;;;;15.13;3.40;;;24.20;1.00;;;;;;4973108;28;20433;-86
2022/09/06 01:55:25;;;;;;;8.60;3.00;;;24.30;1.00;;;;;;4973191;28;20078;-86
2022/09/06 01:58:41;;;;;;;4.95;2.70;;;24.20;1.00;;;;;;4973144;28;20035;-86
2022/09/06 02:01:50;;;;;;;7.13;3.05;;;24.20;1.00;;;;;;4973455;28;20069;-86
2022/09/06 02:04:28;;;;;;;9.70;3.10;;;24.20;1.00;;;;;;4973333;28;20046;-86
2022/09/06 02:07:02;;;;;;;7.40;3.10;;;24.20;1.00;;;;;;4972653;28;20037;-86
2022/09/06 02:09:32;;;;;;;8.05;3.10;;;24.10;1.00;;;;;;4973161;28;20034;-86
2022/09/06 02:12:00;;;;;;;8.55;3.25;;;24.20;1.00;;;;;;4972629;28;20484;-86
2022/09/06 02:14:42;;;;;;;8.82;3.17;;;24.20;1.00;;;;;;4972853;28;20107;-86
2022/09/06 02:17:11;;;;;;;10.18;3.08;;;24.10;1.00;;;;;;4990383;28;20651;-86
2022/09/06 02:19:42;;;;;;;10.32;3.25;;;24.10;1.00;;;;;;4991897;28;20034;-86
2022/09/06 02:22:14;;;;;;;9.43;3.53;;;24.00;1.00;;;;;;4976310;28;20081;-86
2022/09/06 02:24:42;;;;;;;9.65;3.22;;;24.10;1.00;;;;;;4992524;28;20026;-87
2022/09/06 02:27:09;;;;;;;7.80;3.00;;;24.10;1.00;;;;;;4975579;28;20145;-86
2022/09/06 02:29:35;;;;;;;8.27;3.10;;;24.10;1.00;;;;;;5054050;28;20043;-86
2022/09/06 02:32:08;;;;;;;6.78;3.28;;;24.10;1.00;;;;;;5093360;28;20040;-86
2022/09/06 02:34:38;;;;;;;6.93;2.67;;;24.10;1.00;;;;;;5094090;28;20043;-86
2022/09/06 02:37:05;;;;;;;9.20;3.20;;;24.10;1.00;;;;;;5093573;28;20023;-86
2022/09/06 02:39:30;;;;;;;10.23;3.28;;;24.10;1.00;;;;;;5075420;28;20040;-86
2022/09/06 02:41:57;;;;;;;6.72;2.60;;;24.10;1.00;;;;;;5093443;28;20039;-86
2022/09/06 02:44:23;;;;;;;8.52;3.03;;;24.00;1.00;;;;;;5093384;28;20024;-85
2022/09/06 02:46:48;;;;;;;9.15;2.97;;;24.00;1.00;;;;;;5093557;28;20028;-86
2022/09/06 02:49:14;;;;;;;6.75;2.65;;;24.00;1.00;;;;;;5093443;28;20393;-86
2022/09/06 02:51:40;;;;;;;9.57;2.90;;;24.00;1.00;;;;;;5093366;28;20022;-86
2022/09/06 02:54:06;;;;;;;9.88;3.08;;;24.00;1.00;;;;;;5093347;28;20384;-86
2022/09/06 02:56:33;;;;;;;5.85;2.83;;;24.00;1.00;;;;;;5093624;28;20016;-86
2022/09/06 02:58:59;;;;;;;7.88;2.85;;;24.00;1.00;;;;;;5093075;28;20036;-86
2022/09/06 03:01:25;;;;;;;8.85;3.08;;;24.00;1.00;;;;;;5093141;28;20013;-86
2022/09/06 03:03:51;;;;;;;6.88;2.85;;;23.80;1.00;;;;;;5093619;28;20425;-86
2022/09/06 03:06:17;;;;;;;7.97;2.70;;;23.80;1.00;;;;;;5093075;28;20106;-86
2022/09/06 03:08:42;;;;;;;8.02;3.15;;;23.90;99.90;;;;;;5092904;28;20024;-86
2022/09/06 03:11:08;;;;;;;9.48;3.05;;;23.80;1.00;;;;;;5092873;28;20032;-86
2022/09/06 03:13:34;;;;;;;10.68;3.05;;;23.80;1.00;;;;;;5093188;28;20020;-86
2022/09/06 03:16:00;;;;;;;9.07;3.35;;;23.70;1.00;;;;;;5101053;28;20035;-86
2022/09/06 03:18:28;;;;;;;10.07;2.92;;;23.70;1.00;;;;;;5113508;28;20042;-85
2022/09/06 03:20:55;;;;;;;8.57;3.35;;;23.70;1.00;;;;;;5112983;28;20032;-86
2022/09/06 03:23:22;;;;;;;8.50;3.50;;;23.70;1.00;;;;;;5112926;28;20043;-86
2022/09/06 03:25:48;;;;;;;7.32;3.15;;;23.70;1.00;;;;;;5094963;28;20031;-85
2022/09/06 03:28:15;;;;;;;10.95;3.25;;;23.70;1.00;;;;;;5113311;28;20097;-86
2022/09/06 03:30:44;;;;;;;10.13;3.50;;;23.80;1.00;;;;;;5097801;28;20419;-86
2022/09/06 03:33:09;;;;;;;10.15;3.60;;;23.70;1.00;;;;;;5092790;28;20035;-86
2022/09/06 03:35:35;;;;;;;12.68;3.58;;;23.60;99.90;;;;;;5092733;28;20388;-86
2022/09/06 03:38:01;;;;;;;7.68;3.60;;;23.60;99.90;;;;;;5092229;28;20028;-85
2022/09/06 03:40:27;;;;;;;8.48;3.42;;;23.60;1.00;;;;;;5092561;28;20036;-86
2022/09/06 03:42:52;;;;;;;9.43;3.33;;;23.60;99.90;;;;;;5092394;28;20023;-85
2022/09/06 03:45:18;;;;;;;10.48;3.67;;;23.60;99.90;;;;;;5092498;28;20051;-86
2022/09/06 03:47:43;;;;;;;10.70;3.42;;;23.50;99.90;;;;;;5074279;28;20106;-86
2022/09/06 03:50:09;;;;;;;8.77;3.22;;;23.50;99.90;;;;;;5092467;28;20081;-86
2022/09/06 03:52:35;;;;;;;9.55;2.97;;;23.50;99.90;;;;;;5091929;28;20598;-86
2022/09/06 03:55:02;;;;;;;10.80;3.40;;;23.60;99.90;;;;;;5092306;28;20024;-86
2022/09/06 03:57:28;;;;;;;9.38;3.10;;;23.60;1.00;;;;;;5074074;28;20032;-86
2022/09/06 03:59:53;;;;;;;10.65;3.67;;;23.70;99.90;;;;;;5092320;28;20507;-85
2022/09/06 04:02:19;;;;;;;13.43;3.30;;;23.70;99.90;;;;;;5092450;28;20054;-86
2022/09/06 04:04:45;;;;;;;9.60;3.40;;;23.70;99.90;;;;;;5092259;28;20476;-86
2022/09/06 04:07:10;;;;;;;7.07;3.13;;;23.70;99.90;;;;;;5073712;28;20035;-86
2022/09/06 04:09:36;;;;;;;9.45;3.38;;;23.60;99.90;;;;;;5092358;28;20057;-86
2022/09/06 04:12:02;;;;;;;7.95;3.20;;;23.60;99.90;;;;;;5092400;28;20111;-86
2022/09/06 04:14:28;;;;;;;10.57;3.60;;;23.60;99.90;;;;;;5074069;28;20104;-86
2022/09/06 04:16:53;;;;;;;9.20;3.30;;;23.60;99.90;;;;;;5108034;28;20444;-85
2022/09/06 04:19:19;;;;;;;8.63;3.38;;;23.70;99.90;;;;;;5112401;28;20043;-86
2022/09/06 04:21:45;;;;;;;9.60;3.60;;;23.60;99.90;;;;;;5112467;28;20041;-85
2022/09/06 04:24:11;;;;;;;11.40;3.08;;;23.70;99.90;;;;;;5112539;28;20031;-85
2022/09/06 04:26:37;;;;;;;7.55;3.35;;;23.70;99.90;;;;;;5112535;28;20440;-86
2022/09/06 04:29:02;;;;;;;10.43;3.42;;;23.70;99.90;;;;;;5112291;28;20092;-86
2022/09/06 04:31:28;;;;;;;7.60;3.38;;;23.70;99.90;;;;;;5095869;28;20044;-86
2022/09/06 04:33:54;;;;;;;10.38;3.17;;;23.80;99.90;;;;;;5096036;28;20035;-86
2022/09/06 04:36:20;;;;;;;10.75;3.40;;;23.80;99.90;;;;;;5095882;28;20020;-86
2022/09/06 04:38:45;;;;;;;8.95;3.05;;;23.70;99.90;;;;;;5095779;28;20078;-86
2022/09/06 04:41:17;;;;;;;7.45;3.47;;;23.70;99.90;;;;;;5095901;28;20024;-85
2022/09/06 04:43:43;;;;;;;5.60;2.90;;;23.70;99.90;;;;;;5095767;28;20020;-86
2022/09/06 04:46:23;;;;;;;9.35;3.00;;;23.80;99.90;;;;;;5096143;28;20047;-86
2022/09/06 04:48:50;;;;;;;11.02;3.33;;;23.80;99.90;;;;;;5095690;28;20034;-86
2022/09/06 04:51:15;;;;;;;9.07;3.42;;;23.80;99.90;;;;;;5095329;28;20020;-86
2022/09/06 04:53:41;;;;;;;10.75;3.53;;;23.70;99.90;;;;;;5095463;28;20514;-86
2022/09/06 04:56:10;;;;;;;8.98;3.38;;;23.70;99.90;;;;;;5077595;28;20097;-86
2022/09/06 04:58:36;;;;;;;7.88;3.30;;;23.70;1.00;;;;;;5095601;28;20032;-86
2022/09/06 05:01:01;;;;;;;9.38;3.20;;;23.70;1.00;;;;;;5095070;28;20499;-86
2022/09/06 05:03:27;;;;;;;12.48;3.58;;;23.60;1.00;;;;;;5095635;28;20025;-86
2022/09/06 05:06:06;;;;;;;7.25;2.80;;;23.60;1.00;;;;;;5094487;28;20525;-86
2022/09/06 05:08:32;;;;;;;8.95;3.40;;;23.60;1.00;;;;;;5094885;28;20090;-86
2022/09/06 05:10:58;;;;;;;13.07;3.78;;;23.70;1.00;;;;;;5094730;28;20020;-86
2022/09/06 05:13:23;;;;;;;7.93;3.28;;;23.70;1.00;;;;;;5095430;28;20373;-86
2022/09/06 05:15:49;;;;;;;12.13;3.53;;;23.70;1.00;;;;;;5094946;28;20107;-85
2022/09/06 05:18:14;;;;;;;10.18;3.33;;;23.60;1.00;;;;;;5094953;28;20111;-88
2022/09/06 05:20:40;;;;;;;8.55;3.38;;;23.70;1.00;;;;;;5094951;28;20573;-87
2022/09/06 05:23:05;;;;;;;9.05;3.70;;;23.60;1.00;;;;;;5094982;28;20028;-87
2022/09/06 05:25:31;;;;;;;8.55;3.78;;;23.60;1.00;;;;;;5095282;28;20103;-87
2022/09/06 05:27:56;;;;;;;9.88;3.95;;;23.70;1.00;;;;;;5094765;28;20032;-88
2022/09/06 05:30:22;;;;;;;13.30;4.32;;;23.70;1.00;;;;;;5094544;28;20016;-87
2022/09/06 05:32:49;;;;;;;10.80;4.05;;;23.70;1.00;;;;;;5076568;28;20474;-87
2022/09/06 05:35:15;;;;;;;12.55;4.03;;;23.70;1.00;;;;;;5094468;28;20034;-87
2022/09/06 05:37:41;;;;;;;12.98;3.60;;;23.70;1.00;;;;;;5094640;28;20115;-87
2022/09/06 05:40:07;;;;;;;13.57;4.20;;;23.80;1.00;;;;;;5094359;28;20032;-87
2022/09/06 05:42:33;;;;;;;13.70;3.90;;;23.70;1.00;;;;;;5075763;28;20021;-87
2022/09/06 05:44:58;;;;;;;7.22;3.53;;;23.80;1.00;;;;;;5094657;28;20484;-88
2022/09/06 05:47:24;;;;;;;10.90;3.85;;;23.70;1.00;;;;;;5094554;28;20051;-85
2022/09/06 05:49:50;;;;;;;8.30;4.00;;;23.80;1.00;;;;;;5076316;28;20032;-85
2022/09/06 05:52:17;;;;;;;11.02;4.13;;;23.70;1.00;;;;;;5094402;28;20393;-85
2022/09/06 05:54:42;;;;;;;14.02;3.90;;;23.70;1.00;;;;;;5094059;28;20430;-86
2022/09/06 05:57:08;;;;;;;11.32;3.92;;;23.80;1.00;;;;;;5094736;28;20024;-86
2022/09/06 05:59:34;;;;;;;12.52;3.72;;;23.80;1.00;;;;;;5094295;28;20469;-86
2022/09/06 06:01:59;;;;;;;9.93;4.00;;;23.80;1.00;;;;;;5093666;28;20024;-87
2022/09/06 06:04:25;;;;;;;12.43;3.55;;;23.90;1.00;;;;;;5094160;28;20030;-87
2022/09/06 06:06:50;;;;;;;9.57;3.80;;;24.00;1.00;;;;;;5093751;28;20443;-87
2022/09/06 06:09:16;;;;;;;7.20;3.53;;;24.00;1.00;;;;;;5093963;28;20103;-87
2022/09/06 06:11:42;;;;;;;13.82;3.72;;;24.00;1.00;;;;;;5093890;28;20024;-88
2022/09/06 06:14:08;;;;;;;11.20;3.35;;;24.20;1.00;;;;;;5093969;28;20540;-87
2022/09/06 06:16:34;;;;;;;6.35;3.40;;;24.20;1.00;;;;;;5093891;28;20028;-87
2022/09/06 06:18:59;;;;;;;9.95;4.13;;;24.20;1.00;;;;;;5093223;28;20036;-87
2022/09/06 06:21:28;;;;;;;10.68;4.07;;;24.30;1.00;;;;;;5094139;28;20066;-87
2022/09/06 06:23:58;;;;;;;10.85;4.30;;;24.30;1.00;;;;;;5093792;28;20053;-87
2022/09/06 06:26:25;;;;;;;9.30;4.30;;;24.40;1.00;;;;;;5093694;28;20024;-87
2022/09/06 06:28:52;;;;;;;8.35;4.10;;;24.30;1.00;;;;;;5093748;28;20028;-87
2022/09/06 06:31:20;;;;;;;10.68;3.90;;;24.30;1.00;;;;;;5093742;28;20377;-87
2022/09/06 06:33:46;;;;;;;10.73;4.03;;;24.20;1.00;;;;;;5093275;28;20032;-87
2022/09/06 06:36:12;;;;;;;10.20;4.10;;;24.10;1.00;;;;;;5093406;28;20086;-87
2022/09/06 06:38:39;;;;;;;12.63;4.53;;;24.30;1.00;;;;;;5092249;28;20130;-87
2022/09/06 06:41:07;;;;;;;8.10;3.63;;;24.50;99.90;;;;;;5074824;28;20032;-85
2022/09/06 06:43:36;;;;;;;8.80;3.83;;;24.60;99.90;;;;;;5093695;28;20033;-88
2022/09/06 06:46:16;;;;;;;10.88;3.53;;;24.90;99.90;;;;;;5094329;28;20028;-88
2022/09/06 06:48:43;;;;;;;8.43;2.97;;;25.10;99.90;;;;;;5092704;28;20016;-87
2022/09/06 06:51:19;;;;;;;8.35;3.58;;;25.10;99.90;;;;;;5082416;28;20051;-88
2022/09/06 06:53:46;;;;;;;13.63;4.05;;;25.30;99.90;;;;;;5074914;28;20583;-88
2022/09/06 06:56:26;;;;;;;6.53;3.70;;;25.40;99.90;;;;;;5093311;28;20392;-88
2022/09/06 06:58:54;;;;;;;9.27;3.80;;;25.10;99.90;;;;;;5075799;28;20085;-89
2022/09/06 07:01:21;;;;;;;8.45;3.45;;;25.40;99.90;;;;;;5095729;28;20081;-88
2022/09/06 07:03:47;;;;;;;6.40;3.10;;;25.20;99.90;;;;;;5094685;28;20392;-88
2022/09/06 07:06:13;;;;;;;9.57;4.38;;;24.90;99.90;;;;;;5092999;28;20028;-86
2022/09/06 07:08:40;;;;;;;9.07;3.35;;;24.90;99.90;;;;;;5093724;28;20047;-88
2022/09/06 07:11:08;;;;;;;10.15;3.75;;;25.10;99.90;;;;;;5092876;28;20028;-88
2022/09/06 07:13:34;;;;;;;7.22;3.55;;;24.90;99.90;;;;;;5075009;28;20089;-88
2022/09/06 07:16:07;;;;;;;11.18;3.30;;;25.10;99.90;;;;;;5074392;28;20361;-89
2022/09/06 07:18:33;;;;;;;7.65;3.10;;;25.20;99.90;;;;;;5092669;28;20024;-87
2022/09/06 07:20:59;;;;;;;10.95;3.35;;;25.30;99.90;;;;;;5092830;28;20039;-88
2022/09/06 07:23:24;;;;;;;9.77;3.22;;;25.30;99.90;;;;;;5092996;28;20024;-88
2022/09/06 07:25:50;;;;;;;12.48;3.40;;;25.50;99.90;;;;;;5076299;28;20043;-88
2022/09/06 07:28:15;;;;;;;5.85;3.08;;;25.60;99.90;;;;;;5074273;28;20024;-88
2022/09/06 07:30:41;;;;;;;9.30;3.17;;;25.70;99.90;;;;;;5092207;28;20085;-88
2022/09/06 07:33:07;;;;;;;5.80;3.00;;;25.50;99.90;;;;;;5092749;28;20067;-88
2022/09/06 07:35:32;;;;;;;8.25;3.03;;;25.50;99.90;;;;;;5092600;28;20035;-87
2022/09/06 07:38:00;;;;;;;9.45;3.10;;;25.90;99.90;;;;;;5092919;28;20085;-88
2022/09/06 07:40:27;;;;;;;7.53;3.10;;;26.20;99.90;;;;;;5074159;28;20081;-88
2022/09/06 07:42:57;;;;;;;8.20;2.78;;;26.40;99.90;;;;;;5089456;28;20103;-88
2022/09/06 07:45:23;;;;;;;8.45;2.80;;;26.20;99.90;;;;;;5093038;28;20082;-88
2022/09/06 07:47:57;;;;;;;7.30;2.97;;;26.20;99.90;;;;;;5092461;28;20039;-88
2022/09/06 07:50:24;;;;;;;5.65;3.03;;;26.50;99.90;;;;;;5092213;28;20429;-88
2022/09/06 07:52:49;;;;;;;10.98;3.03;;;26.70;99.90;;;;;;5092306;28;20119;-89
2022/09/06 07:55:15;;;;;;;6.63;2.70;;;26.60;99.90;;;;;;5092547;28;20047;-88
2022/09/06 07:57:40;;;;;;;7.03;2.75;;;26.50;99.90;;;;;;5092352;28;20035;-89
2022/09/06 08:00:07;;;;;;;5.85;2.65;;;26.40;99.90;;;;;;5091773;28;20087;-89
2022/09/06 08:02:33;;;;;;;5.32;2.28;;;26.60;99.90;;;;;;5092592;28;20404;-88
2022/09/06 08:04:58;;;;;;;7.88;2.72;;;26.50;99.90;;;;;;5091796;28;20020;-88
2022/09/06 08:07:24;;;;;;;9.95;3.20;;;26.20;99.90;;;;;;5092065;28;20032;-88
2022/09/06 08:09:50;;;;;;;6.93;2.63;;;26.30;99.90;;;;;;5074340;28;20029;-88
2022/09/06 08:12:16;;;;;;;5.95;2.80;;;26.30;99.90;;;;;;5074066;28;20043;-89
2022/09/06 08:14:42;;;;;;;7.90;2.70;;;26.60;99.90;;;;;;5091903;28;20028;-88
2022/09/06 08:17:07;;;;;;;6.55;2.42;;;26.90;99.90;;;;;;5074147;28;20032;-88
2022/09/06 08:19:33;;;;;;;7.68;2.60;;;27.10;99.90;;;;;;5092141;28;20036;-88
2022/09/06 08:21:59;;;;;;;9.98;2.80;;;27.10;99.90;;;;;;5091097;28;20020;-88
2022/09/06 08:24:25;;;;;;;7.65;2.78;;;27.20;99.90;;;;;;5091202;28;20103;-89
2022/09/06 08:26:50;;;;;;;7.32;2.70;;;26.80;99.90;;;;;;5091704;28;20553;-89
2022/09/06 08:29:17;;;;;;;5.35;2.17;;;27.10;99.90;;;;;;5091959;28;20039;-88
2022/09/06 08:31:43;;;;;;;8.32;2.45;;;27.30;99.90;;;;;;5092040;28;20076;-89
2022/09/06 08:34:13;;;;;;;9.80;2.97;;;27.30;99.90;;;;;;5091485;28;20099;-88
2022/09/06 08:36:39;;;;;;;9.25;2.67;;;27.10;99.90;;;;;;5092463;28;20027;-89
2022/09/06 08:39:08;;;;;;;6.95;2.75;;;27.50;99.90;;;;;;5092303;28;20403;-88
2022/09/06 08:41:39;;;;;;;5.45;2.20;;;27.80;99.90;;;;;;5092141;28;20049;-89
2022/09/06 08:44:11;;;;;;;7.35;2.47;;;28.00;99.90;;;;;;5091693;28;20064;-88
2022/09/06 08:46:44;;;;;;;7.65;2.42;;;28.00;99.90;;;;;;5092216;28;20024;-88
2022/09/06 08:49:10;;;;;;;6.22;2.20;;;28.40;99.90;;;;;;5091946;28;20437;-88
2022/09/06 08:52:01;;;;;;;8.57;2.58;;;28.40;99.90;;;;;;5091696;28;20099;-88
2022/09/06 08:54:33;;;;;;;7.88;2.25;;;27.80;99.90;;;;;;5092038;28;20107;-88
2022/09/06 08:57:05;;;;;;;10.15;2.50;;;27.70;99.90;;;;;;5073568;28;20032;-89
2022/09/06 08:59:37;;;;;;;7.03;2.67;;;27.80;99.90;;;;;;5091655;28;20114;-88
2022/09/06 09:02:18;;;;;;;7.78;2.50;;;27.50;99.90;;;;;;5091374;28;20028;-88
2022/09/06 09:05:05;;;;;;;7.25;2.40;;;27.50;99.90;;;;;;5087917;28;20028;-88
2022/09/06 09:07:39;;;;;;;7.82;2.63;;;27.60;99.90;;;;;;5073495;28;20049;-89
2022/09/06 09:10:13;;;;;;;7.60;2.70;;;28.10;99.90;;;;;;5092147;28;20533;-89
2022/09/06 09:12:47;;;;;;;7.38;2.60;;;28.40;99.90;;;;;;5073190;28;20032;-88
2022/09/06 09:15:16;;;;;;;6.28;2.65;;;28.00;99.90;;;;;;5092704;28;20039;-88
2022/09/06 09:17:42;;;;;;;9.43;2.60;;;28.20;99.90;;;;;;5075447;28;20055;-88
2022/09/06 09:20:09;;;;;;;6.78;2.33;;;28.20;99.90;;;;;;5093950;28;20404;-86
2022/09/06 09:22:35;;;;;;;7.85;2.30;;;28.10;99.90;;;;;;5094683;28;20024;-87
2022/09/06 09:25:04;;;;;;;7.40;2.67;;;28.60;99.90;;;;;;5094721;28;20035;-87
2022/09/06 09:27:32;;;;;;;6.97;2.42;;;28.30;99.90;;;;;;5094601;28;20443;-87
2022/09/06 09:30:00;;;;;;;6.28;2.40;;;27.90;99.90;;;;;;5090755;28;20069;-87
2022/09/06 09:32:30;;;;;;;6.25;2.30;;;28.30;99.90;;;;;;5094026;28;20059;-87
2022/09/06 09:35:14;;;;;;;6.20;2.17;;;28.60;99.90;;;;;;5093605;28;20027;-87
2022/09/06 09:37:40;;;;;;;6.00;2.45;;;29.00;99.90;;;;;;5093918;28;20484;-87
2022/09/06 09:40:12;;;;;;;6.18;2.53;;;28.90;99.90;;;;;;5094410;28;20093;-86
2022/09/06 09:42:38;;;;;;;7.95;2.50;;;29.10;99.90;;;;;;5084159;28;20020;-85
2022/09/06 09:45:26;;;;;;;10.00;2.30;;;30.00;99.90;;;;;;5085367;28;20035;-87
2022/09/06 09:47:52;;;;;;;7.32;2.22;;;32.30;99.90;;;;;;5098700;28;20452;-87
2022/09/06 09:50:30;;;;;;;6.63;2.22;;;35.20;99.90;;;;;;5114150;28;20047;-87
2022/09/06 09:53:08;;;;;;;7.72;2.10;;;37.70;99.90;;;;;;5093019;28;20028;-87
2022/09/06 09:55:33;;;;;;;5.70;2.10;;;39.40;99.90;;;;;;5075762;28;20131;-87
2022/09/06 09:57:59;;;;;;;6.13;2.10;;;40.50;99.90;;;;;;5094234;28;20103;-87
2022/09/06 10:00:41;;;;;;;8.00;2.15;;;41.00;99.90;;;;;;5092928;28;20024;-88
2022/09/06 10:03:17;;;;;;;7.03;2.10;;;43.00;99.90;;;;;;5093071;28;20580;-87
2022/09/06 10:05:55;;;;;;;5.95;1.85;;;42.40;99.90;;;;;;5094175;28;20081;-88
2022/09/06 10:08:24;;;;;;;9.07;2.28;;;41.00;99.90;;;;;;5093749;28;20080;-88
2022/09/06 10:10:50;;;;;;;8.55;2.60;;;41.80;99.90;;;;;;5092938;28;20107;-88
2022/09/06 10:13:20;;;;;;;5.40;1.83;;;41.90;99.90;;;;;;5093977;28;20040;-88
2022/09/06 10:15:46;;;;;;;4.85;1.80;;;41.80;99.90;;;;;;5093832;28;20028;-87
2022/09/06 10:18:35;;;;;;;6.15;2.03;;;42.00;99.90;;;;;;5093495;28;20032;-87
2022/09/06 10:21:14;;;;;;;6.00;2.15;;;40.50;99.90;;;;;;5080023;28;20043;-88
2022/09/06 10:24:04;;;;;;;6.57;1.92;;;40.50;99.90;;;;;;5073488;28;20016;-88
2022/09/06 10:26:50;;;;;;;5.55;2.13;;;41.20;99.90;;;;;;5060029;28;20381;-87
2022/09/06 10:29:27;;;;;;;6.68;2.33;;;42.30;99.90;;;;;;5090973;28;20028;-87
2022/09/06 10:32:18;;;;;;;5.38;1.80;;;42.50;99.90;;;;;;5092908;28;20052;-87
2022/09/06 10:35:10;;;;;;;8.82;2.15;;;41.00;99.90;;;;;;5093864;28;20029;-87
2022/09/06 10:37:52;;;;;;;3.97;1.70;;;42.30;99.90;;;;;;5081940;28;20065;-87
2022/09/06 10:40:33;;;;;;;6.63;2.20;;;42.60;99.90;;;;;;5092306;28;20074;-87
2022/09/06 10:43:02;;;;;;;5.70;2.10;;;41.00;99.90;;;;;;5093370;28;20038;-87
2022/09/06 10:45:43;;;;;;;6.35;1.98;;;45.10;99.90;;;;;;5093036;28;20054;-87
2022/09/06 10:48:29;;;;;;;3.83;1.70;;;44.20;99.90;;;;;;5093482;28;20028;-88
2022/09/06 10:51:10;;;;;;;10.10;2.45;;;41.30;99.90;;;;;;5073038;28;20459;-87
2022/09/06 10:53:52;;;;;;;4.82;1.90;;;43.50;99.90;;;;;;5075385;28;20530;-87
2022/09/06 10:56:36;;;;;;;3.20;1.77;;;44.50;99.90;;;;;;5094624;28;20515;-87
2022/09/06 10:59:10;;;;;;;7.32;2.10;;;43.10;99.90;;;;;;5096030;28;20443;-88
2022/09/06 11:01:43;;;;;;;6.65;2.10;;;44.30;99.90;;;;;;5111897;28;20031;-87
2022/09/06 11:04:19;;;;;;;8.45;2.40;;;43.30;99.90;;;;;;5093118;28;20028;-87
2022/09/06 11:06:52;;;;;;;8.27;2.03;;;45.30;99.90;;;;;;5092767;28;20039;-88
2022/09/06 11:09:28;;;;;;;6.95;2.45;;;45.20;99.90;;;;;;5092416;28;20561;-91
2022/09/06 11:12:06;;;;;;;7.03;2.08;;;43.90;99.90;;;;;;5092526;28;20032;-91
2022/09/06 11:14:34;;;;;;;6.18;1.92;;;43.90;99.90;;;;;;5082746;28;20039;-90
2022/09/06 11:17:03;;;;;;;6.95;2.30;;;45.40;99.90;;;;;;5088379;28;20035;-91
2022/09/06 11:20:04;;;;;;;7.20;1.95;;;43.70;99.90;;;;;;5091857;28;20165;-91
2022/09/06 11:22:39;;;;;;;5.95;2.50;;;46.00;99.90;;;;;;5074167;28;20035;-90
2022/09/06 11:25:30;;;;;;;5.10;2.05;;;43.40;99.90;;;;;;5112494;28;20020;-95
2022/09/06 11:27:59;;;;;;;5.78;1.95;;;39.80;99.90;;;;;;5093354;28;20032;-90
2022/09/06 11:30:28;;;;;;;7.65;2.80;;;42.80;99.90;;;;;;5091902;28;20465;-90
2022/09/06 11:33:29;;;;;;;7.20;2.20;;;43.70;99.90;;;;;;5092091;28;20084;-90
2022/09/06 11:36:18;;;;;;;6.53;2.00;;;44.00;99.90;;;;;;5091521;28;20027;-87
2022/09/06 11:38:57;;;;;;;8.57;2.55;;;42.00;99.90;;;;;;5091788;28;20028;-95
2022/09/06 11:41:31;;;;;;;8.50;2.63;;;44.40;99.90;;;;;;5094044;28;20020;-95
2022/09/06 11:43:57;;;;;;;7.97;2.45;;;46.00;99.90;;;;;;5094367;28;20024;-94
2022/09/06 11:46:32;;;;;;;9.55;2.72;;;46.10;99.90;;;;;;5092955;28;20031;-95
2022/09/06 11:49:25;;;;;;;7.03;2.45;;;44.40;99.90;;;;;;5094233;28;20028;-95
2022/09/06 11:51:51;;;;;;;11.45;3.10;;;45.20;99.90;;;;;;5094380;28;20032;-95
2022/09/06 11:54:22;;;;;;;8.75;3.00;;;45.70;99.90;;;;;;5093800;28;20028;-95
2022/09/06 11:56:53;;;;;;;7.95;2.70;;;44.40;99.90;;;;;;5098582;28;20044;-95
2022/09/06 11:59:18;;;;;;;11.52;2.45;;;44.60;99.90;;;;;;5078770;28;20035;-96
2022/09/06 12:02:25;;;;;;;10.73;2.63;;;42.00;99.90;;;;;;5094224;28;20028;-96
2022/09/06 12:05:00;;;;;;;8.32;3.08;;;41.80;99.90;;;;;;5094151;28;20024;-95
2022/09/06 12:07:30;;;;;;;10.50;2.67;;;45.90;99.90;;;;;;5093910;28;20031;-95
2022/09/06 12:09:59;;;;;;;12.02;2.53;;;43.70;99.90;;;;;;5094095;28;20537;-95
2022/09/06 12:12:51;;;;;;;12.75;2.90;;;44.80;99.90;;;;;;5094336;28;20034;-95
2022/09/06 12:15:27;;;;;;;12.75;3.35;;;43.30;99.90;;;;;;5091108;28;20116;-95
2022/09/06 12:17:54;;;;;;;10.93;2.55;;;44.60;99.90;;;;;;5094037;28;20076;-95
2022/09/06 12:20:47;;;;;;;18.35;3.53;;;43.90;99.90;;;;;;5093686;28;20036;-95
2022/09/06 12:23:39;;;;;;;13.05;3.03;;;42.50;99.90;;;;;;5094196;28;20103;-96
2022/09/06 12:26:07;;;;;;;11.70;3.08;;;43.30;99.90;;;;;;5093946;28;20032;-95
2022/09/06 12:28:46;;;;;;;11.20;2.60;;;42.70;99.90;;;;;;5094571;28;20104;-95
2022/09/06 12:31:29;;;;;;;13.48;3.45;;;41.20;99.90;;;;;;5093420;28;20036;-95
2022/09/06 12:33:56;;;;;;;10.90;3.17;;;40.20;99.90;;;;;;5093765;28;20411;-94
2022/09/06 12:36:29;;;;;;;17.13;3.33;;;41.20;99.90;;;;;;5093764;28;20491;-95
2022/09/06 12:39:01;;;;;;;14.57;3.15;;;39.00;99.90;;;;;;5093577;28;20433;-95
2022/09/06 12:41:30;;;;;;;14.05;3.28;;;40.30;99.90;;;;;;5093444;28;20036;-96
2022/09/06 12:43:59;;;;;;;13.38;3.10;;;41.60;99.90;;;;;;5092752;28;20380;-92
2022/09/06 12:46:27;;;;;;;12.60;2.85;;;42.20;99.90;;;;;;5093775;28;20496;-96
2022/09/06 12:49:21;;;;;;;12.15;3.05;;;41.80;99.90;;;;;;5075807;28;20456;-96
2022/09/06 12:51:47;;;;;;;12.07;3.08;;;41.00;99.90;;;;;;5093440;28;20036;-93
2022/09/06 12:54:25;;;;;;;14.65;3.20;;;39.30;99.90;;;;;;5096895;28;20028;-95
2022/09/06 12:56:51;;;;;;;11.32;3.00;;;41.20;99.90;;;;;;5097288;28;20028;-95
2022/09/06 12:59:23;;;;;;;14.30;3.40;;;42.70;99.90;;;;;;5097683;28;20044;-95
2022/09/06 13:02:01;;;;;;;13.00;2.88;;;39.50;99.90;;;;;;5096245;28;20027;-94
2022/09/06 13:04:26;;;;;;;13.68;3.28;;;41.10;99.90;;;;;;5097043;28;20036;-94
2022/09/06 13:06:53;;;;;;;9.80;2.67;;;39.50;99.90;;;;;;5079182;28;20028;-95